createdAt,value
2022-10-05T00:00:03.810Z,101629.75
2022-10-05T00:05:20.529Z,101627.03
2022-10-05T00:10:25.875Z,101625.88
2022-10-05T00:15:30.365Z,101628.28
2022-10-05T00:20:34.772Z,101609.94
2022-10-05T00:25:40.229Z,101615.75
2022-10-05T00:30:44.182Z,101612.41
2022-10-05T00:35:48.095Z,101602.87
2022-10-05T00:41:03.996Z,101605.81
2022-10-05T00:46:16.603Z,101598.28
2022-10-05T00:51:29.553Z,101602.72
2022-10-05T00:56:55.999Z,101598.91
2022-10-05T01:02:08.120Z,101597.25
2022-10-05T01:07:20.551Z,101591.41
2022-10-05T01:12:33.197Z,101586.50
2022-10-05T01:17:43.026Z,101576.75
2022-10-05T01:23:16.236Z,101569.69
2022-10-05T01:28:25.865Z,101572.63
2022-10-05T01:33:35.284Z,101576.69
2022-10-05T01:38:49.054Z,101570.66
2022-10-05T01:43:58.902Z,101556.56
2022-10-05T01:49:30.946Z,101551.28
2022-10-05T01:54:45.444Z,101539.09
2022-10-05T02:00:04.076Z,101532.88
2022-10-05T02:05:22.639Z,101517.94
2022-10-05T02:10:31.135Z,101525.69
2022-10-05T02:15:43.367Z,101521.25
2022-10-05T02:20:50.908Z,101512.53
2022-10-05T02:25:57.235Z,101503.69
2022-10-05T02:31:08.195Z,101498.63
2022-10-05T02:36:16.341Z,101494.19
2022-10-05T02:41:25.659Z,101488.25
2022-10-05T02:46:36.785Z,101479.72
2022-10-05T02:51:51.656Z,101467.34
2022-10-05T02:57:00.627Z,101460.97
2022-10-05T03:02:15.960Z,101462.84
2022-10-05T03:07:26.080Z,101463.47
2022-10-05T03:12:43.958Z,101453.44
2022-10-05T03:17:58.137Z,101442.84
2022-10-05T03:23:05.489Z,101454.63
2022-10-05T03:28:13.615Z,101452.38
2022-10-05T03:33:27.062Z,101450.25
2022-10-05T03:38:40.438Z,101453.06
2022-10-05T03:44:14.447Z,101449.25
2022-10-05T03:49:29.456Z,101445.75
2022-10-05T03:54:38.776Z,101453.50
2022-10-05T03:59:51.643Z,101447.34
2022-10-05T04:05:03.156Z,101453.19
2022-10-05T04:10:15.116Z,101453.31
2022-10-05T04:15:28.190Z,101447.16
2022-10-05T04:20:42.923Z,101447.00
2022-10-05T04:25:52.032Z,101446.94
2022-10-05T04:30:56.734Z,101438.16
2022-10-05T04:36:19.287Z,101432.78
2022-10-05T04:41:41.384Z,101427.88
2022-10-05T04:47:03.974Z,101424.19
2022-10-05T04:52:17.185Z,101419.22
2022-10-05T04:57:27.668Z,101418.59
2022-10-05T05:02:52.851Z,101415.88
2022-10-05T05:08:07.953Z,101412.66
2022-10-05T05:13:45.257Z,101414.19
2022-10-05T05:19:10.578Z,101409.59
2022-10-05T05:24:24.542Z,101403.59
2022-10-05T05:29:42.886Z,101403.69
2022-10-05T05:35:06.003Z,101395.00
2022-10-05T05:40:17.285Z,101394.88
2022-10-05T05:45:30.231Z,101393.22
2022-10-05T05:50:49.822Z,101393.97
2022-10-05T05:56:00.665Z,101385.47
2022-10-05T06:01:30.620Z,101389.53
2022-10-05T06:06:40.064Z,101394.50
2022-10-05T06:11:49.601Z,101381.53
2022-10-05T06:16:59.153Z,101380.88
2022-10-05T06:22:07.901Z,101385.13
2022-10-05T06:27:35.436Z,101382.53
2022-10-05T06:33:01.799Z,101387.66
2022-10-05T06:38:22.565Z,101390.06
2022-10-05T06:43:48.380Z,101389.28
2022-10-05T06:49:09.867Z,101394.44
2022-10-05T06:54:32.771Z,101397.16
2022-10-05T06:59:47.564Z,101394.59
2022-10-05T07:05:06.372Z,101384.41
2022-10-05T07:10:23.391Z,101393.22
2022-10-05T07:15:41.996Z,101395.19
2022-10-05T07:20:52.627Z,101385.03
2022-10-05T07:26:05.873Z,101386.25
2022-10-05T07:31:18.167Z,101384.72
2022-10-05T07:36:45.958Z,101393.50
2022-10-05T07:41:59.373Z,101394.75
2022-10-05T07:47:11.162Z,101392.19
2022-10-05T07:52:22.015Z,101403.84
2022-10-05T07:57:33.928Z,101392.50
2022-10-05T08:02:46.526Z,101396.44
2022-10-05T08:07:52.890Z,101400.94
2022-10-05T08:13:07.445Z,101395.19
2022-10-05T08:18:21.056Z,101387.66
2022-10-05T08:23:29.403Z,101390.75
2022-10-05T08:28:35.542Z,101382.78
2022-10-05T08:33:52.777Z,101378.81
2022-10-05T08:39:00.468Z,101368.63
2022-10-05T08:44:40.743Z,101376.56
2022-10-05T08:50:03.258Z,101363.75
2022-10-05T08:55:27.781Z,101350.06
2022-10-05T09:00:40.968Z,101350.66
2022-10-05T09:06:39.117Z,101355.75
2022-10-05T09:11:47.201Z,101348.78
2022-10-05T09:17:28.221Z,101345.37
2022-10-05T09:23:01.436Z,101343.03
2022-10-05T09:28:24.494Z,101337.34
2022-10-05T09:33:58.379Z,101332.94
2022-10-05T09:40:00.533Z,101330.66
2022-10-05T09:45:40.381Z,101337.84
2022-10-05T09:51:23.811Z,101322.47
2022-10-05T09:56:52.867Z,101315.13
2022-10-05T10:02:19.953Z,101316.31
2022-10-05T10:07:53.251Z,101303.03
2022-10-05T10:13:15.082Z,101293.75
2022-10-05T10:18:37.354Z,101286.28
2022-10-05T10:24:03.263Z,101289.28
2022-10-05T10:29:45.969Z,101275.53
2022-10-05T10:35:33.787Z,101281.84
2022-10-05T10:40:50.688Z,101277.63
2022-10-05T10:46:08.088Z,101279.75
2022-10-05T10:51:19.204Z,101268.69
2022-10-05T10:56:43.203Z,101275.94
2022-10-05T11:02:04.890Z,101272.72
2022-10-05T11:07:39.359Z,101254.41
2022-10-05T11:13:16.853Z,101262.81
2022-10-05T11:18:30.689Z,101251.94
2022-10-05T11:24:10.337Z,101242.72
2022-10-05T11:30:01.944Z,101248.44
2022-10-05T11:35:37.377Z,101236.38
2022-10-05T11:41:29.823Z,101205.12
2022-10-05T11:46:39.953Z,101225.66
2022-10-05T11:51:53.958Z,101219.09
2022-10-05T11:57:05.198Z,101202.00
2022-10-05T12:02:37.816Z,101195.72
2022-10-05T12:07:55.191Z,101214.16
2022-10-05T12:13:24.432Z,101188.41
2022-10-05T12:18:48.003Z,101188.38
2022-10-05T12:23:57.521Z,101177.78
2022-10-05T12:29:13.171Z,101173.53
2022-10-05T12:34:25.780Z,101180.88
2022-10-05T12:39:39.066Z,101181.75
2022-10-05T12:45:00.357Z,101176.44
2022-10-05T12:50:20.748Z,101169.44
2022-10-05T12:55:29.611Z,101182.56
2022-10-05T13:00:40.387Z,101175.63
2022-10-05T13:05:53.599Z,101177.94
2022-10-05T13:11:04.924Z,101188.75
2022-10-05T13:16:24.481Z,101171.16
2022-10-05T13:21:36.135Z,101185.13
2022-10-05T13:26:43.166Z,101175.31
2022-10-05T13:31:54.355Z,101177.91
2022-10-05T13:37:08.736Z,101192.09
2022-10-05T13:42:16.651Z,101184.31
2022-10-05T13:47:26.066Z,101180.88
2022-10-05T13:52:42.278Z,101186.81
2022-10-05T13:57:58.294Z,101200.19
2022-10-05T14:03:03.462Z,101187.03
2022-10-05T14:08:18.125Z,101202.78
2022-10-05T14:13:26.674Z,101206.22
2022-10-05T14:18:34.406Z,101207.97
2022-10-05T14:23:38.317Z,101209.63
2022-10-05T14:28:43.694Z,101217.31
2022-10-05T14:33:49.180Z,101229.78
2022-10-05T14:38:56.204Z,101216.47
2022-10-05T14:44:03.275Z,101247.72
2022-10-05T14:49:22.261Z,101257.22
2022-10-05T14:54:35.179Z,101252.59
2022-10-05T14:59:55.686Z,101261.91
2022-10-05T15:05:03.660Z,101267.91
2022-10-05T15:10:26.934Z,101271.37
2022-10-05T15:15:37.261Z,101264.34
2022-10-05T15:20:53.613Z,101270.22
2022-10-05T15:26:13.531Z,101254.53
2022-10-05T15:31:30.039Z,101252.59
2022-10-05T15:36:43.527Z,101263.66
2022-10-05T15:42:00.381Z,101262.56
2022-10-05T15:47:08.272Z,101270.66
2022-10-05T15:52:19.390Z,101272.22
2022-10-05T15:57:31.130Z,101271.75
2022-10-05T16:02:43.665Z,101281.13
2022-10-05T16:08:10.823Z,101273.34
2022-10-05T16:13:27.061Z,101287.72
2022-10-05T16:18:56.993Z,101281.69
2022-10-05T16:24:16.511Z,101282.62
2022-10-05T16:29:28.343Z,101292.03
2022-10-05T16:34:44.947Z,101295.47
2022-10-05T16:39:58.220Z,101305.69
2022-10-05T16:45:15.852Z,101306.66
2022-10-05T16:50:24.684Z,101303.91
2022-10-05T16:55:35.144Z,101299.81
2022-10-05T17:00:52.680Z,101313.69
2022-10-05T17:06:41.461Z,101301.19
2022-10-05T17:12:08.992Z,101325.22
2022-10-05T17:17:34.265Z,101307.19
2022-10-05T17:22:50.775Z,101306.25
2022-10-05T17:27:57.823Z,101320.91
2022-10-05T17:33:15.526Z,101317.16
2022-10-05T17:38:22.888Z,101330.44
2022-10-05T17:43:30.054Z,101333.06
2022-10-05T17:49:06.583Z,101342.84
2022-10-05T17:54:39.772Z,101337.66
2022-10-05T17:59:57.540Z,101342.75
2022-10-05T18:05:06.071Z,101347.88
2022-10-05T18:10:24.534Z,101366.19
2022-10-05T18:15:49.286Z,101361.06
2022-10-05T18:21:28.651Z,101366.50
2022-10-05T18:26:43.614Z,101383.00
2022-10-05T18:31:55.302Z,101372.44
2022-10-05T18:37:14.848Z,101379.75
2022-10-05T18:42:27.201Z,101376.25
2022-10-05T18:47:40.532Z,101389.50
2022-10-05T18:52:56.508Z,101386.94
2022-10-05T18:58:17.967Z,101407.81
2022-10-05T19:03:30.419Z,101419.97
2022-10-05T19:08:43.939Z,101447.84
2022-10-05T19:13:55.791Z,101456.03
2022-10-05T19:19:33.429Z,101465.97
2022-10-05T19:24:54.224Z,101465.84
2022-10-05T19:30:13.532Z,101480.19
2022-10-05T19:35:28.752Z,101496.31
2022-10-05T19:40:41.230Z,101499.94
2022-10-05T19:45:55.541Z,101509.34
2022-10-05T19:51:02.282Z,101514.59
2022-10-05T19:56:20.100Z,101527.59
2022-10-05T20:01:25.833Z,101530.00
2022-10-05T20:06:31.060Z,101533.69
2022-10-05T20:11:50.184Z,101554.44
2022-10-05T20:17:32.375Z,101570.72
2022-10-05T20:22:40.152Z,101576.03
2022-10-05T20:27:46.993Z,101584.78
2022-10-05T20:32:51.443Z,101584.00
2022-10-05T20:37:59.467Z,101602.19
2022-10-05T20:43:03.194Z,101624.66
2022-10-05T20:48:06.892Z,101631.72
2022-10-05T20:53:12.602Z,101646.44
2022-10-05T20:58:16.360Z,101663.50
2022-10-05T21:03:20.139Z,101693.41
2022-10-05T21:08:25.713Z,101695.59
2022-10-05T21:13:29.645Z,101728.16
2022-10-05T21:18:33.505Z,101730.94
2022-10-05T21:23:38.579Z,101718.13
2022-10-05T21:28:42.538Z,101732.41
2022-10-05T21:33:46.339Z,101747.25
2022-10-05T21:38:52.855Z,101745.25
2022-10-05T21:43:56.588Z,101759.44
2022-10-05T21:49:00.407Z,101769.88
2022-10-05T21:54:10.181Z,101791.19
2022-10-05T21:59:18.723Z,101792.34
2022-10-05T22:04:22.594Z,101803.97
2022-10-05T22:09:27.870Z,101813.75
2022-10-05T22:14:32.150Z,101824.94
2022-10-05T22:19:35.913Z,101832.19
2022-10-05T22:24:41.124Z,101851.41
2022-10-05T22:29:45.295Z,101855.91
2022-10-05T22:34:49.131Z,101877.94
2022-10-05T22:39:55.212Z,101885.41
2022-10-05T22:44:59.044Z,101907.59
2022-10-05T22:50:03.396Z,101904.25
2022-10-05T22:55:09.518Z,101914.72
2022-10-05T23:00:14.201Z,101926.81
2022-10-05T23:05:18.133Z,101932.88
2022-10-05T23:10:26.121Z,101943.06
2022-10-05T23:15:29.846Z,101943.91
2022-10-05T23:20:33.512Z,101957.88
2022-10-05T23:25:38.541Z,101963.69
2022-10-05T23:30:42.296Z,101978.34
2022-10-05T23:35:46.086Z,101988.44
2022-10-05T23:40:51.263Z,101994.34
2022-10-05T23:45:56.236Z,102007.13
2022-10-05T23:51:00.335Z,102006.22
2022-10-05T23:56:06.112Z,102016.53
